createdAt,value
2023-04-15T00:01:05.217Z,100813.50
2023-04-15T00:03:31.936Z,100808.84
2023-04-15T00:05:58.615Z,100763.19
2023-04-15T00:08:25.138Z,100814.25
2023-04-15T00:10:52.359Z,100810.72
2023-04-15T00:13:19.038Z,100790.31
2023-04-15T00:15:45.768Z,100800.44
2023-04-15T00:18:12.278Z,100748.78
2023-04-15T00:20:38.800Z,100825.91
2023-04-15T00:23:05.464Z,100836.94
2023-04-15T00:25:32.325Z,100817.25
2023-04-15T00:27:58.870Z,100831.47
2023-04-15T00:30:25.610Z,100831.94
2023-04-15T00:32:52.755Z,100827.34
2023-04-15T00:35:19.598Z,100806.41
2023-04-15T00:37:46.572Z,100824.34
2023-04-15T00:40:13.983Z,100769.09
2023-04-15T00:42:41.146Z,100803.69
2023-04-15T00:45:08.497Z,100812.22
2023-04-15T00:47:36.389Z,100817.16
2023-04-15T00:50:03.404Z,100747.88
2023-04-15T00:52:30.131Z,100823.59
2023-04-15T00:54:56.953Z,100823.72
2023-04-15T00:57:23.591Z,100833.56
2023-04-15T00:59:52.654Z,100842.94
2023-04-15T01:02:23.282Z,100856.97
2023-04-15T01:04:50.578Z,100861.16
2023-04-15T01:07:17.139Z,100866.81
2023-04-15T01:09:43.877Z,100874.88
2023-04-15T01:12:12.927Z,100878.56
2023-04-15T01:14:42.186Z,100871.22
2023-04-15T01:17:08.962Z,100876.22
2023-04-15T01:19:37.247Z,100853.69
2023-04-15T01:22:04.218Z,100864.28
2023-04-15T01:24:31.840Z,100872.25
2023-04-15T01:26:58.458Z,100874.44
2023-04-15T01:29:25.064Z,100873.94
2023-04-15T01:31:53.427Z,100878.09
2023-04-15T01:34:20.104Z,100890.72
2023-04-15T01:36:47.081Z,100835.78
2023-04-15T01:39:13.935Z,100891.59
2023-04-15T01:41:40.613Z,100883.72
2023-04-15T01:44:07.159Z,100884.97
2023-04-15T01:46:34.734Z,100888.31
2023-04-15T01:49:01.603Z,100887.75
2023-04-15T01:51:28.384Z,100871.28
2023-04-15T01:53:54.901Z,100901.41
2023-04-15T01:56:21.417Z,100902.38
2023-04-15T01:58:48.122Z,100901.69
2023-04-15T02:01:14.814Z,100910.72
2023-04-15T02:03:41.313Z,100910.53
2023-04-15T02:06:07.993Z,100904.59
2023-04-15T02:08:34.716Z,100904.34
2023-04-15T02:11:01.363Z,100884.69
2023-04-15T02:13:27.885Z,100910.53
2023-04-15T02:15:55.241Z,100919.47
2023-04-15T02:18:21.899Z,100909.13
2023-04-15T02:20:48.571Z,100894.00
2023-04-15T02:23:15.177Z,100921.31
2023-04-15T02:25:41.698Z,100926.59
2023-04-15T02:28:08.232Z,100928.44
2023-04-15T02:30:34.888Z,100928.00
2023-04-15T02:33:01.897Z,100939.41
2023-04-15T02:35:28.659Z,100920.19
2023-04-15T02:37:55.546Z,100935.41
2023-04-15T02:40:22.257Z,100941.84
2023-04-15T02:42:48.885Z,100945.75
2023-04-15T02:45:15.484Z,100948.41
2023-04-15T02:47:42.118Z,100944.50
2023-04-15T02:50:11.245Z,100917.16
2023-04-15T02:52:38.148Z,100948.41
2023-04-15T02:55:05.261Z,100955.09
2023-04-15T02:57:31.777Z,100943.28
2023-04-15T02:59:58.313Z,100959.28
2023-04-15T03:02:25.111Z,100944.31
2023-04-15T03:04:51.815Z,100968.91
2023-04-15T03:07:18.632Z,100976.53
2023-04-15T03:09:46.193Z,100981.34
2023-04-15T03:12:12.648Z,100991.44
2023-04-15T03:14:39.371Z,100988.38
2023-04-15T03:17:05.836Z,100989.59
2023-04-15T03:19:32.435Z,100988.81
2023-04-15T03:21:59.032Z,100986.22
2023-04-15T03:24:26.592Z,100989.94
2023-04-15T03:26:53.318Z,100993.44
2023-04-15T03:29:19.971Z,100995.38
2023-04-15T03:31:46.590Z,100963.97
2023-04-15T03:34:13.156Z,100999.34
2023-04-15T03:36:39.845Z,100985.16
2023-04-15T03:39:06.325Z,100992.72
2023-04-15T03:41:32.850Z,101006.06
2023-04-15T03:43:59.498Z,101004.38
2023-04-15T03:46:26.063Z,101006.41
2023-04-15T03:48:52.712Z,101010.00
2023-04-15T03:51:19.396Z,101016.06
2023-04-15T03:53:46.089Z,101032.44
2023-04-15T03:56:12.704Z,101028.34
2023-04-15T03:58:39.215Z,101030.97
2023-04-15T04:01:05.843Z,101033.59
2023-04-15T04:03:32.646Z,101037.81
2023-04-15T04:05:59.495Z,101038.38
2023-04-15T04:08:26.119Z,101019.03
2023-04-15T04:10:52.971Z,101042.91
2023-04-15T04:13:19.509Z,101043.47
2023-04-15T04:15:46.043Z,100995.63
2023-04-15T04:18:12.486Z,101047.22
2023-04-15T04:20:39.012Z,101055.22
2023-04-15T04:23:05.711Z,101063.03
2023-04-15T04:25:32.406Z,101054.34
2023-04-15T04:27:59.631Z,101065.53
2023-04-15T04:30:26.238Z,101060.34
2023-04-15T04:32:53.241Z,101078.38
2023-04-15T04:35:19.839Z,101084.38
2023-04-15T04:37:46.441Z,101091.63
2023-04-15T04:40:13.414Z,101096.31
2023-04-15T04:42:40.494Z,101098.53
2023-04-15T04:45:07.718Z,101116.94
2023-04-15T04:47:34.347Z,101108.78
2023-04-15T04:50:00.982Z,101122.03
2023-04-15T04:52:27.592Z,101119.72
2023-04-15T04:54:54.313Z,101137.03
2023-04-15T04:57:20.871Z,101085.16
2023-04-15T04:59:47.410Z,101142.56
2023-04-15T05:02:13.994Z,101147.25
2023-04-15T05:04:40.572Z,101144.78
2023-04-15T05:07:07.098Z,101159.25
2023-04-15T05:09:33.551Z,101123.56
2023-04-15T05:12:00.104Z,101175.78
2023-04-15T05:14:26.701Z,101186.81
2023-04-15T05:16:53.280Z,101190.53
2023-04-15T05:19:19.948Z,101197.13
2023-04-15T05:21:46.629Z,101208.88
2023-04-15T05:24:13.147Z,101173.47
2023-04-15T05:26:39.762Z,101218.09
2023-04-15T05:29:06.386Z,101219.44
2023-04-15T05:31:33.115Z,101225.97
2023-04-15T05:33:59.670Z,101212.09
2023-04-15T05:36:26.177Z,101214.84
2023-04-15T05:38:52.826Z,101214.03
2023-04-15T05:41:20.023Z,101196.06
2023-04-15T05:43:46.626Z,101268.88
2023-04-15T05:46:13.187Z,101274.16
2023-04-15T05:48:40.061Z,101286.91
2023-04-15T05:51:06.687Z,101252.47
2023-04-15T05:53:33.318Z,101272.34
2023-04-15T05:55:59.770Z,101315.88
2023-04-15T05:58:26.394Z,101331.53
2023-04-15T06:00:53.216Z,101352.63
2023-04-15T06:03:19.990Z,101351.00
2023-04-15T06:05:46.561Z,101368.50
2023-04-15T06:08:13.084Z,101379.69
2023-04-15T06:10:39.584Z,101379.78
2023-04-15T06:13:06.224Z,101374.28
2023-04-15T06:15:32.838Z,101385.69
2023-04-15T06:17:59.504Z,101406.69
2023-04-15T06:20:26.172Z,101403.56
2023-04-15T06:22:53.061Z,101377.16
2023-04-15T06:25:19.577Z,101403.03
2023-04-15T06:27:46.330Z,101405.81
2023-04-15T06:30:13.045Z,101410.75
2023-04-15T06:32:39.836Z,101413.81
2023-04-15T06:35:06.676Z,101399.69
2023-04-15T06:37:33.205Z,101429.97
2023-04-15T06:40:00.280Z,101449.47
2023-04-15T06:42:27.075Z,101443.06
2023-04-15T06:44:53.693Z,101406.16
2023-04-15T06:47:20.235Z,101423.41
2023-04-15T06:49:46.780Z,101390.53
2023-04-15T06:52:13.431Z,101434.69
2023-04-15T06:54:40.038Z,101445.22
2023-04-15T06:57:06.668Z,101433.97
2023-04-15T06:59:33.395Z,101455.34
2023-04-15T07:02:00.212Z,101455.16
2023-04-15T07:04:27.081Z,101468.38
2023-04-15T07:06:54.500Z,101431.94
2023-04-15T07:09:22.721Z,101470.63
2023-04-15T07:11:49.252Z,101458.34
2023-04-15T07:14:15.902Z,101480.88
2023-04-15T07:16:42.379Z,101444.81
2023-04-15T07:19:09.336Z,101457.78
2023-04-15T07:21:35.866Z,101447.03
2023-04-15T07:24:02.515Z,101440.41
2023-04-15T07:26:29.350Z,101431.16
2023-04-15T07:28:55.974Z,101414.31
2023-04-15T07:31:22.887Z,101419.78
2023-04-15T07:33:49.425Z,101442.84
2023-04-15T07:36:15.860Z,101466.53
2023-04-15T07:38:42.458Z,101464.69
2023-04-15T07:41:09.301Z,101470.00
2023-04-15T07:43:35.957Z,101421.66
2023-04-15T07:46:02.536Z,101455.81
2023-04-15T07:48:29.341Z,101432.34
2023-04-15T07:50:55.891Z,101413.72
2023-04-15T07:53:22.539Z,101390.81
2023-04-15T07:55:48.965Z,101404.84
2023-04-15T07:58:15.642Z,101422.38
2023-04-15T08:00:42.363Z,101409.81
2023-04-15T08:03:08.955Z,101415.97
2023-04-15T08:05:35.647Z,101429.97
2023-04-15T08:08:02.070Z,101385.19
2023-04-15T08:10:30.463Z,101438.53
2023-04-15T08:12:57.162Z,101432.50
2023-04-15T08:15:23.931Z,101448.09
2023-04-15T08:17:50.469Z,101452.00
2023-04-15T08:20:17.135Z,101456.66
2023-04-15T08:22:44.062Z,101465.69
2023-04-15T08:25:10.623Z,101450.28
2023-04-15T08:27:37.338Z,101455.69
2023-04-15T08:30:05.421Z,101437.56
2023-04-15T08:32:32.312Z,101468.59
2023-04-15T08:34:59.172Z,101458.53
2023-04-15T08:37:25.869Z,101464.88
2023-04-15T08:39:52.538Z,101478.78
2023-04-15T08:42:27.749Z,101450.13
2023-04-15T08:44:55.547Z,101491.75
2023-04-15T08:47:26.530Z,101499.41
2023-04-15T08:49:55.434Z,101501.06
2023-04-15T08:52:22.108Z,101446.88
2023-04-15T08:54:48.935Z,101496.66
2023-04-15T08:57:16.146Z,101464.22
2023-04-15T08:59:43.465Z,101514.59
2023-04-15T09:02:10.160Z,101513.59
2023-04-15T09:04:36.742Z,101523.75
2023-04-15T09:07:03.390Z,101521.63
2023-04-15T09:09:29.935Z,101476.75
2023-04-15T09:11:56.527Z,101532.63
2023-04-15T09:14:23.192Z,101538.75
2023-04-15T09:17:03.067Z,101538.38
2023-04-15T09:19:30.613Z,101541.22
2023-04-15T09:21:59.559Z,101535.59
2023-04-15T09:24:36.026Z,101556.09
2023-04-15T09:27:02.978Z,101552.69
2023-04-15T09:29:29.648Z,101506.38
2023-04-15T09:31:56.272Z,101572.13
2023-04-15T09:34:35.825Z,101575.41
2023-04-15T09:37:02.329Z,101565.22
2023-04-15T09:39:45.816Z,101577.31
2023-04-15T09:42:12.415Z,101564.88
2023-04-15T09:44:38.936Z,101563.88
2023-04-15T09:47:05.880Z,101558.94
2023-04-15T09:49:32.490Z,101546.41
2023-04-15T09:52:06.028Z,101526.19
2023-04-15T09:54:37.587Z,101573.84
2023-04-15T09:57:08.839Z,101584.63
2023-04-15T09:59:35.875Z,101538.09
2023-04-15T10:02:05.128Z,101579.28
2023-04-15T10:04:35.293Z,101589.81
2023-04-15T10:07:04.881Z,101592.41
2023-04-15T10:09:32.462Z,101591.13
2023-04-15T10:11:59.134Z,101591.03
2023-04-15T10:14:28.504Z,101551.44
2023-04-15T10:16:58.655Z,101587.78
2023-04-15T10:19:27.712Z,101604.28
2023-04-15T10:21:55.428Z,101601.00
2023-04-15T10:24:25.249Z,101590.03
2023-04-15T10:26:52.649Z,101605.59
2023-04-15T10:29:20.624Z,101611.47
2023-04-15T10:31:48.289Z,101617.97
2023-04-15T10:34:15.896Z,101611.91
2023-04-15T10:36:42.573Z,101621.09
2023-04-15T10:39:34.353Z,101613.94
2023-04-15T10:42:15.850Z,101625.06
2023-04-15T10:44:44.955Z,101611.59
2023-04-15T10:47:16.765Z,101607.16
2023-04-15T10:49:58.868Z,101617.63
2023-04-15T10:52:28.142Z,101607.75
2023-04-15T10:55:14.576Z,101630.78
2023-04-15T10:57:42.416Z,101618.66
2023-04-15T11:00:08.939Z,101622.00
2023-04-15T11:02:46.126Z,101637.81
2023-04-15T11:05:17.725Z,101597.25
2023-04-15T11:07:44.350Z,101634.06
2023-04-15T11:10:13.872Z,101631.28
2023-04-15T11:12:41.399Z,101645.63
2023-04-15T11:15:29.492Z,101639.41
2023-04-15T11:18:18.236Z,101646.50
2023-04-15T11:20:49.875Z,101652.78
2023-04-15T11:23:18.833Z,101638.94
2023-04-15T11:25:46.083Z,101615.22
2023-04-15T11:28:13.250Z,101605.22
2023-04-15T11:30:40.857Z,101668.91
2023-04-15T11:33:10.000Z,101663.09
2023-04-15T11:35:37.021Z,101665.56
2023-04-15T11:38:05.253Z,101672.34
2023-04-15T11:40:32.375Z,101619.63
2023-04-15T11:43:13.985Z,101668.50
2023-04-15T11:46:00.021Z,101679.53
2023-04-15T11:48:29.265Z,101676.22
2023-04-15T11:51:01.374Z,101689.69
2023-04-15T11:53:40.399Z,101679.38
2023-04-15T11:56:09.465Z,101684.06
2023-04-15T11:58:37.831Z,101676.16
2023-04-15T12:01:05.692Z,101700.53
2023-04-15T12:03:41.445Z,101709.25
2023-04-15T12:06:24.083Z,101710.22
2023-04-15T12:09:01.070Z,101704.63
2023-04-15T12:11:27.609Z,101703.09
2023-04-15T12:13:56.565Z,101718.59
2023-04-15T12:16:24.539Z,101715.84
2023-04-15T12:18:52.841Z,101681.94
2023-04-15T12:21:22.038Z,101709.38
2023-04-15T12:24:09.081Z,101727.44
2023-04-15T12:26:44.668Z,101739.28
2023-04-15T12:29:12.883Z,101751.41
2023-04-15T12:31:52.333Z,101739.28
2023-04-15T12:34:33.420Z,101742.41
2023-04-15T12:37:01.647Z,101740.91
2023-04-15T12:39:30.921Z,101752.31
2023-04-15T12:41:58.554Z,101762.00
2023-04-15T12:44:25.329Z,101753.94
2023-04-15T12:46:52.617Z,101756.06
2023-04-15T12:49:20.580Z,101759.56
2023-04-15T12:51:52.348Z,101771.88
2023-04-15T12:54:19.181Z,101720.72
2023-04-15T12:56:46.860Z,101718.84
2023-04-15T12:59:14.484Z,101781.19
2023-04-15T13:01:41.376Z,101779.00
2023-04-15T13:04:08.870Z,101785.19
2023-04-15T13:06:35.970Z,101784.03
2023-04-15T13:09:05.291Z,101783.91
2023-04-15T13:11:33.315Z,101781.41
2023-04-15T13:14:08.338Z,101786.53
2023-04-15T13:16:35.519Z,101780.00
2023-04-15T13:19:03.140Z,101790.28
2023-04-15T13:21:30.468Z,101801.84
2023-04-15T13:23:57.167Z,101789.88
2023-04-15T13:26:23.925Z,101739.50
2023-04-15T13:28:50.653Z,101802.28
2023-04-15T13:31:17.282Z,101809.13
2023-04-15T13:33:44.014Z,101805.53
2023-04-15T13:36:10.672Z,101807.31
2023-04-15T13:38:37.298Z,101804.84
2023-04-15T13:41:03.907Z,101793.03
2023-04-15T13:43:30.561Z,101807.38
2023-04-15T13:45:57.339Z,101813.69
2023-04-15T13:48:24.055Z,101827.03
2023-04-15T13:50:50.698Z,101816.81
2023-04-15T13:53:17.543Z,101827.94
2023-04-15T13:55:44.066Z,101778.78
2023-04-15T13:58:11.712Z,101840.72
2023-04-15T14:00:38.227Z,101843.31
2023-04-15T14:03:05.106Z,101852.31
2023-04-15T14:05:33.260Z,101841.97
2023-04-15T14:08:00.282Z,101856.06
2023-04-15T14:10:27.073Z,101856.13
2023-04-15T14:12:53.804Z,101854.84
2023-04-15T14:15:21.416Z,101854.25
2023-04-15T14:17:48.192Z,101866.06
2023-04-15T14:20:16.379Z,101875.19
2023-04-15T14:22:43.952Z,101859.69
2023-04-15T14:25:17.225Z,101872.34
2023-04-15T14:27:46.602Z,101858.94
2023-04-15T14:30:13.492Z,101879.88
2023-04-15T14:32:40.764Z,101784.97
2023-04-15T14:35:07.475Z,101827.94
2023-04-15T14:37:34.116Z,101860.16
2023-04-15T14:40:00.862Z,101885.56
2023-04-15T14:42:27.485Z,101828.34
2023-04-15T14:44:54.087Z,101859.88
2023-04-15T14:47:20.795Z,101879.03
2023-04-15T14:49:47.537Z,101848.78
2023-04-15T14:52:14.237Z,101875.66
2023-04-15T14:54:40.992Z,101892.03
2023-04-15T14:57:07.732Z,101906.66
2023-04-15T14:59:34.296Z,101905.66
2023-04-15T15:02:01.027Z,101878.13
2023-04-15T15:04:27.930Z,101902.53
2023-04-15T15:06:54.930Z,101918.00
2023-04-15T15:09:21.653Z,101904.22
2023-04-15T15:11:48.221Z,101912.88
2023-04-15T15:14:15.063Z,101909.94
2023-04-15T15:16:41.598Z,101917.63
2023-04-15T15:19:08.339Z,101915.31
2023-04-15T15:21:35.282Z,101920.41
2023-04-15T15:24:02.132Z,101924.50
2023-04-15T15:26:28.838Z,101921.66
2023-04-15T15:28:55.429Z,101928.88
2023-04-15T15:31:22.217Z,101934.28
2023-04-15T15:33:48.889Z,101885.13
2023-04-15T15:36:16.344Z,101936.34
2023-04-15T15:38:42.986Z,101939.47
2023-04-15T15:41:09.677Z,101946.59
2023-04-15T15:43:36.259Z,101947.75
2023-04-15T15:46:03.602Z,101900.34
2023-04-15T15:48:30.413Z,101953.47
2023-04-15T15:50:57.175Z,101956.09
2023-04-15T15:53:23.873Z,101956.13
2023-04-15T15:55:51.501Z,101967.63
2023-04-15T15:58:19.748Z,101933.03
2023-04-15T16:00:46.429Z,101975.25
2023-04-15T16:03:13.086Z,101966.59
2023-04-15T16:05:39.666Z,101983.06
2023-04-15T16:08:06.675Z,101924.94
2023-04-15T16:10:33.693Z,101990.88
2023-04-15T16:13:00.715Z,101980.34
2023-04-15T16:15:27.479Z,101939.09
2023-04-15T16:17:54.207Z,102000.13
2023-04-15T16:20:20.852Z,101979.88
2023-04-15T16:22:47.642Z,102006.75
2023-04-15T16:25:14.513Z,102021.91
2023-04-15T16:27:57.107Z,102000.88
2023-04-15T16:30:27.960Z,102018.88
2023-04-15T16:32:54.913Z,101985.44
2023-04-15T16:35:21.636Z,102033.16
2023-04-15T16:37:48.236Z,101972.50
2023-04-15T16:40:15.442Z,102030.69
2023-04-15T16:42:42.077Z,102043.16
2023-04-15T16:45:09.078Z,102046.63
2023-04-15T16:47:35.672Z,102050.94
2023-04-15T16:50:02.350Z,102047.81
2023-04-15T16:52:29.248Z,102042.13
2023-04-15T16:54:56.239Z,102056.25
2023-04-15T16:57:22.741Z,101995.94
2023-04-15T16:59:51.619Z,102057.53
2023-04-15T17:02:18.392Z,102001.09
2023-04-15T17:04:45.144Z,102058.56
2023-04-15T17:07:11.554Z,102071.03
2023-04-15T17:09:39.463Z,102047.94
2023-04-15T17:12:06.714Z,102076.44
2023-04-15T17:14:33.464Z,102075.25
2023-04-15T17:17:00.209Z,102086.00
2023-04-15T17:19:26.833Z,102085.09
2023-04-15T17:21:54.905Z,102090.31
2023-04-15T17:24:21.917Z,102105.34
2023-04-15T17:26:48.526Z,102078.38
2023-04-15T17:29:15.024Z,102093.06
2023-04-15T17:31:41.769Z,102099.63
2023-04-15T17:34:10.310Z,102092.25
2023-04-15T17:36:38.406Z,102100.81
2023-04-15T17:39:05.073Z,102048.38
2023-04-15T17:41:31.842Z,102111.56
2023-04-15T17:43:58.424Z,102072.78
2023-04-15T17:46:25.183Z,102113.88
2023-04-15T17:48:51.697Z,102057.94
2023-04-15T17:51:18.276Z,102125.53
2023-04-15T17:53:44.916Z,102069.38
2023-04-15T17:56:11.569Z,102132.69
2023-04-15T17:58:38.291Z,102134.75
2023-04-15T18:01:04.891Z,102139.44
2023-04-15T18:03:31.538Z,102135.22
2023-04-15T18:05:58.265Z,102138.28
2023-04-15T18:08:24.904Z,102086.88
2023-04-15T18:10:51.584Z,102146.75
2023-04-15T18:13:18.207Z,102164.66
2023-04-15T18:15:47.198Z,102167.03
2023-04-15T18:18:13.940Z,102179.38
2023-04-15T18:20:40.588Z,102180.25
2023-04-15T18:23:07.638Z,102188.09
2023-04-15T18:25:34.454Z,102194.59
2023-04-15T18:28:01.191Z,102210.28
2023-04-15T18:30:27.747Z,102223.63
2023-04-15T18:32:54.320Z,102222.47
2023-04-15T18:35:20.972Z,102225.50
2023-04-15T18:37:47.700Z,102204.50
2023-04-15T18:40:14.413Z,102221.13
2023-04-15T18:42:41.005Z,102214.69
2023-04-15T18:45:07.878Z,102242.22
2023-04-15T18:47:34.508Z,102262.59
2023-04-15T18:50:01.048Z,102233.13
2023-04-15T18:52:27.567Z,102260.38
2023-04-15T18:54:54.276Z,102270.94
2023-04-15T18:57:25.980Z,102267.03
2023-04-15T18:59:59.169Z,102281.06
2023-04-15T19:02:25.950Z,102273.03
2023-04-15T19:04:52.652Z,102287.06
2023-04-15T19:07:19.169Z,102294.34
2023-04-15T19:09:45.807Z,102300.84
2023-04-15T19:12:12.362Z,102304.13
2023-04-15T19:14:38.909Z,102302.59
2023-04-15T19:17:05.591Z,102325.50
2023-04-15T19:19:32.267Z,102300.22
2023-04-15T19:21:58.916Z,102310.13
2023-04-15T19:24:25.605Z,102315.81
2023-04-15T19:26:52.217Z,102343.94
2023-04-15T19:29:19.158Z,102342.22
2023-04-15T19:31:45.874Z,102378.94
2023-04-15T19:34:12.429Z,102351.81
2023-04-15T19:36:39.131Z,102318.66
2023-04-15T19:39:06.118Z,102394.56
2023-04-15T19:41:33.050Z,102400.13
2023-04-15T19:44:00.295Z,102405.19
2023-04-15T19:46:27.503Z,102422.72
2023-04-15T19:48:55.291Z,102433.69
2023-04-15T19:51:21.888Z,102439.88
2023-04-15T19:53:49.626Z,102433.63
2023-04-15T19:56:16.274Z,102447.84
2023-04-15T19:58:42.930Z,102454.97
2023-04-15T20:01:09.587Z,102456.97
2023-04-15T20:03:36.372Z,102449.09
2023-04-15T20:06:03.450Z,102456.53
2023-04-15T20:08:29.947Z,102458.06
2023-04-15T20:10:57.084Z,102412.75
2023-04-15T20:13:23.714Z,102472.41
2023-04-15T20:15:50.355Z,102487.28
2023-04-15T20:18:17.036Z,102487.44
2023-04-15T20:20:43.853Z,102498.25
2023-04-15T20:23:10.499Z,102492.38
2023-04-15T20:25:38.255Z,102514.59
2023-04-15T20:28:04.915Z,102524.63
2023-04-15T20:30:31.734Z,102506.31
2023-04-15T20:32:58.432Z,102530.75
2023-04-15T20:35:25.150Z,102529.09
2023-04-15T20:37:51.852Z,102540.69
2023-04-15T20:40:18.714Z,102517.00
2023-04-15T20:42:45.333Z,102546.44
2023-04-15T20:45:11.880Z,102539.31
2023-04-15T20:47:38.683Z,102547.94
2023-04-15T20:50:05.764Z,102554.78
2023-04-15T20:52:32.515Z,102564.75
2023-04-15T20:54:59.039Z,102558.88
2023-04-15T20:57:25.924Z,102568.47
2023-04-15T20:59:52.647Z,102562.22
2023-04-15T21:02:19.247Z,102510.03
2023-04-15T21:04:46.055Z,102565.97
2023-04-15T21:07:12.527Z,102561.03
2023-04-15T21:09:39.088Z,102572.81
2023-04-15T21:12:06.086Z,102579.34
2023-04-15T21:14:32.758Z,102578.34
2023-04-15T21:16:59.649Z,102577.91
2023-04-15T21:19:26.590Z,102580.75
2023-04-15T21:21:53.209Z,102581.31
2023-04-15T21:24:19.819Z,102574.94
2023-04-15T21:26:47.679Z,102588.22
2023-04-15T21:29:14.544Z,102600.09
2023-04-15T21:31:41.617Z,102532.72
2023-04-15T21:34:08.735Z,102609.53
2023-04-15T21:36:36.767Z,102604.47
2023-04-15T21:39:04.264Z,102538.72
2023-04-15T21:41:31.289Z,102612.50
2023-04-15T21:43:58.020Z,102612.41
2023-04-15T21:46:25.765Z,102625.91
2023-04-15T21:48:59.868Z,102630.13
2023-04-15T21:51:26.640Z,102576.72
2023-04-15T21:53:53.434Z,102630.03
2023-04-15T21:56:20.003Z,102642.91
2023-04-15T21:58:46.712Z,102650.69
2023-04-15T22:01:13.392Z,102646.88
2023-04-15T22:03:40.088Z,102663.75
2023-04-15T22:06:06.684Z,102662.56
2023-04-15T22:08:41.227Z,102662.03
2023-04-15T22:11:08.789Z,102604.38
2023-04-15T22:13:35.651Z,102670.53
2023-04-15T22:16:05.043Z,102659.31
2023-04-15T22:18:31.642Z,102670.88
2023-04-15T22:20:58.261Z,102676.38
2023-04-15T22:23:25.001Z,102630.59
2023-04-15T22:25:51.604Z,102676.66
2023-04-15T22:28:18.290Z,102668.06
2023-04-15T22:30:44.969Z,102670.94
2023-04-15T22:33:11.571Z,102664.09
2023-04-15T22:35:38.138Z,102687.47
2023-04-15T22:38:05.122Z,102681.72
2023-04-15T22:40:31.793Z,102687.75
2023-04-15T22:42:58.487Z,102651.09
2023-04-15T22:45:28.017Z,102686.47
2023-04-15T22:47:54.910Z,102696.22
2023-04-15T22:50:21.552Z,102703.78
2023-04-15T22:52:48.364Z,102710.47
2023-04-15T22:55:15.310Z,102715.25
2023-04-15T22:57:42.042Z,102702.22
2023-04-15T23:00:09.244Z,102721.38
2023-04-15T23:02:36.267Z,102725.78
2023-04-15T23:05:04.193Z,102662.91
2023-04-15T23:07:38.245Z,102736.88
2023-04-15T23:10:05.605Z,102740.84
2023-04-15T23:12:32.301Z,102746.31
2023-04-15T23:14:59.290Z,102751.44
2023-04-15T23:17:26.008Z,102724.84
2023-04-15T23:19:52.555Z,102727.59
2023-04-15T23:22:19.062Z,102703.38
2023-04-15T23:24:45.579Z,102696.34
2023-04-15T23:27:12.156Z,102692.66
2023-04-15T23:29:38.777Z,102698.81
2023-04-15T23:32:05.994Z,102713.47
2023-04-15T23:34:32.767Z,102710.72
2023-04-15T23:36:59.310Z,102620.44
2023-04-15T23:39:25.925Z,102367.69
2023-04-15T23:41:53.092Z,102675.50
2023-04-15T23:44:20.154Z,102941.03
2023-04-15T23:46:46.668Z,102643.22
2023-04-15T23:49:13.406Z,102654.28
2023-04-15T23:51:40.290Z,102688.78
2023-04-15T23:54:07.095Z,102667.13
2023-04-15T23:56:33.591Z,102601.59
2023-04-15T23:59:00.080Z,102655.69
